sensor_id;sensor_type;location;lat;lon;timestamp;P1;durP1;ratioP1;P2;durP2;ratioP2
76098;SDS011;64828;49.956;8.636;2024-03-17T00:00:08;9.43;;;6.10;;
76098;SDS011;64828;49.956;8.636;2024-03-17T00:00:29;8.83;;;6.23;;
76098;SDS011;64828;49.956;8.636;2024-03-17T00:00:45;8.65;;;6.30;;
76098;SDS011;64828;49.956;8.636;2024-03-17T00:01:04;8.37;;;5.97;;
76098;SDS011;64828;49.956;8.636;2024-03-17T00:01:20;9.15;;;5.90;;
76098;SDS011;64828;49.956;8.636;2024-03-17T00:01:36;8.95;;;5.80;;
76098;SDS011;64828;49.956;8.636;2024-03-17T00:01:52;8.52;;;5.90;;
76098;SDS011;64828;49.956;8.636;2024-03-17T00:02:07;8.00;;;6.00;;
76098;SDS011;64828;49.956;8.636;2024-03-17T00:02:23;8.65;;;6.10;;
76098;SDS011;64828;49.956;8.636;2024-03-17T00:02:39;9.07;;;6.27;;
76098;SDS011;64828;49.956;8.636;2024-03-17T00:02:54;7.93;;;6.07;;
76098;SDS011;64828;49.956;8.636;2024-03-17T00:03:10;8.75;;;6.30;;
76098;SDS011;64828;49.956;8.636;2024-03-17T00:03:26;8.82;;;6.18;;
76098;SDS011;64828;49.956;8.636;2024-03-17T00:03:43;8.85;;;5.80;;
76098;SDS011;64828;49.956;8.636;2024-03-17T00:03:59;8.18;;;5.90;;
76098;SDS011;64828;49.956;8.636;2024-03-17T00:04:14;7.47;;;5.85;;
76098;SDS011;64828;49.956;8.636;2024-03-17T00:04:30;7.27;;;6.07;;
76098;SDS011;64828;49.956;8.636;2024-03-17T00:04:46;6.78;;;5.82;;
76098;SDS011;64828;49.956;8.636;2024-03-17T00:05:02;6.88;;;5.72;;
76098;SDS011;64828;49.956;8.636;2024-03-17T00:05:19;8.13;;;5.82;;
76098;SDS011;64828;49.956;8.636;2024-03-17T00:05:35;9.13;;;6.25;;
76098;SDS011;64828;49.956;8.636;2024-03-17T00:05:59;7.72;;;6.10;;
76098;SDS011;64828;49.956;8.636;2024-03-17T00:06:16;8.88;;;6.28;;
76098;SDS011;64828;49.956;8.636;2024-03-17T00:06:32;10.18;;;6.30;;
76098;SDS011;64828;49.956;8.636;2024-03-17T00:06:48;9.05;;;6.22;;
76098;SDS011;64828;49.956;8.636;2024-03-17T00:07:03;8.18;;;6.32;;
76098;SDS011;64828;49.956;8.636;2024-03-17T00:07:19;7.68;;;5.82;;
76098;SDS011;64828;49.956;8.636;2024-03-17T00:07:35;8.00;;;6.13;;
76098;SDS011;64828;49.956;8.636;2024-03-17T00:07:50;8.57;;;6.40;;
76098;SDS011;64828;49.956;8.636;2024-03-17T00:08:06;9.40;;;6.50;;
76098;SDS011;64828;49.956;8.636;2024-03-17T00:08:23;8.70;;;6.65;;
76098;SDS011;64828;49.956;8.636;2024-03-17T00:08:39;8.93;;;6.70;;
76098;SDS011;64828;49.956;8.636;2024-03-17T00:08:55;9.75;;;7.05;;
76098;SDS011;64828;49.956;8.636;2024-03-17T00:09:10;8.90;;;6.50;;
76098;SDS011;64828;49.956;8.636;2024-03-17T00:09:26;8.67;;;6.27;;
76098;SDS011;64828;49.956;8.636;2024-03-17T00:09:42;8.15;;;6.55;;
76098;SDS011;64828;49.956;8.636;2024-03-17T00:09:57;9.63;;;6.75;;
76098;SDS011;64828;49.956;8.636;2024-03-17T00:10:13;11.07;;;7.00;;
76098;SDS011;64828;49.956;8.636;2024-03-17T00:10:30;9.43;;;6.75;;
76098;SDS011;64828;49.956;8.636;2024-03-17T00:10:49;9.10;;;6.82;;
76098;SDS011;64828;49.956;8.636;2024-03-17T00:11:06;9.93;;;7.10;;
76098;SDS011;64828;49.956;8.636;2024-03-17T00:11:22;8.95;;;6.88;;
76098;SDS011;64828;49.956;8.636;2024-03-17T00:11:37;9.70;;;6.85;;
76098;SDS011;64828;49.956;8.636;2024-03-17T00:11:53;9.27;;;6.90;;
76098;SDS011;64828;49.956;8.636;2024-03-17T00:12:10;8.45;;;7.03;;
76098;SDS011;64828;49.956;8.636;2024-03-17T00:12:26;8.23;;;6.90;;
76098;SDS011;64828;49.956;8.636;2024-03-17T00:12:41;9.07;;;6.80;;
76098;SDS011;64828;49.956;8.636;2024-03-17T00:12:57;10.63;;;7.23;;
76098;SDS011;64828;49.956;8.636;2024-03-17T00:13:13;10.18;;;7.57;;
76098;SDS011;64828;49.956;8.636;2024-03-17T00:13:29;9.60;;;7.70;;
76098;SDS011;64828;49.956;8.636;2024-03-17T00:13:45;9.55;;;7.68;;
76098;SDS011;64828;49.956;8.636;2024-03-17T00:14:01;9.27;;;7.03;;
76098;SDS011;64828;49.956;8.636;2024-03-17T00:14:17;9.57;;;7.22;;
76098;SDS011;64828;49.956;8.636;2024-03-17T00:14:33;8.65;;;7.13;;
76098;SDS011;64828;49.956;8.636;2024-03-17T00:14:50;8.35;;;6.78;;
76098;SDS011;64828;49.956;8.636;2024-03-17T00:15:05;8.77;;;6.97;;
76098;SDS011;64828;49.956;8.636;2024-03-17T00:15:22;8.80;;;6.82;;
76098;SDS011;64828;49.956;8.636;2024-03-17T00:15:38;8.48;;;6.65;;
76098;SDS011;64828;49.956;8.636;2024-03-17T00:15:54;8.25;;;6.28;;
76098;SDS011;64828;49.956;8.636;2024-03-17T00:16:09;8.57;;;6.37;;
76098;SDS011;64828;49.956;8.636;2024-03-17T00:16:25;8.95;;;6.13;;
76098;SDS011;64828;49.956;8.636;2024-03-17T00:16:41;8.13;;;5.90;;
76098;SDS011;64828;49.956;8.636;2024-03-17T00:16:56;8.27;;;5.80;;
76098;SDS011;64828;49.956;8.636;2024-03-17T00:17:12;8.82;;;5.07;;
76098;SDS011;64828;49.956;8.636;2024-03-17T00:17:30;10.20;;;4.97;;
76098;SDS011;64828;49.956;8.636;2024-03-17T00:17:45;9.32;;;5.45;;
76098;SDS011;64828;49.956;8.636;2024-03-17T00:18:01;7.27;;;5.27;;
76098;SDS011;64828;49.956;8.636;2024-03-17T00:18:17;7.80;;;5.00;;
76098;SDS011;64828;49.956;8.636;2024-03-17T00:18:33;7.90;;;5.18;;
76098;SDS011;64828;49.956;8.636;2024-03-17T00:18:48;7.30;;;5.33;;
76098;SDS011;64828;49.956;8.636;2024-03-17T00:19:04;7.50;;;5.40;;
76098;SDS011;64828;49.956;8.636;2024-03-17T00:19:20;8.30;;;5.50;;
76098;SDS011;64828;49.956;8.636;2024-03-17T00:19:38;8.40;;;5.40;;
76098;SDS011;64828;49.956;8.636;2024-03-17T00:19:54;7.97;;;5.40;;
76098;SDS011;64828;49.956;8.636;2024-03-17T00:20:10;8.37;;;5.60;;
76098;SDS011;64828;49.956;8.636;2024-03-17T00:20:33;8.70;;;5.65;;
76098;SDS011;64828;49.956;8.636;2024-03-17T00:20:49;7.28;;;5.57;;
76098;SDS011;64828;49.956;8.636;2024-03-17T00:21:05;7.45;;;5.20;;
76098;SDS011;64828;49.956;8.636;2024-03-17T00:21:20;7.60;;;5.00;;
76098;SDS011;64828;49.956;8.636;2024-03-17T00:21:37;7.45;;;5.13;;
76098;SDS011;64828;49.956;8.636;2024-03-17T00:21:52;7.03;;;5.10;;
76098;SDS011;64828;49.956;8.636;2024-03-17T00:22:08;6.68;;;5.00;;
76098;SDS011;64828;49.956;8.636;2024-03-17T00:22:28;6.78;;;5.00;;
76098;SDS011;64828;49.956;8.636;2024-03-17T00:22:45;6.57;;;5.05;;
76098;SDS011;64828;49.956;8.636;2024-03-17T00:23:06;6.70;;;5.20;;
76098;SDS011;64828;49.956;8.636;2024-03-17T00:23:23;7.57;;;5.35;;
76098;SDS011;64828;49.956;8.636;2024-03-17T00:23:38;8.65;;;5.40;;
76098;SDS011;64828;49.956;8.636;2024-03-17T00:23:54;8.15;;;5.28;;
76098;SDS011;64828;49.956;8.636;2024-03-17T00:24:10;7.60;;;5.50;;
76098;SDS011;64828;49.956;8.636;2024-03-17T00:24:25;6.50;;;5.28;;
76098;SDS011;64828;49.956;8.636;2024-03-17T00:24:42;6.65;;;5.20;;
76098;SDS011;64828;49.956;8.636;2024-03-17T00:25:00;7.18;;;5.47;;
76098;SDS011;64828;49.956;8.636;2024-03-17T00:25:15;8.20;;;5.40;;
76098;SDS011;64828;49.956;8.636;2024-03-17T00:25:32;8.20;;;5.30;;
76098;SDS011;64828;49.956;8.636;2024-03-17T00:25:49;7.13;;;5.22;;
76098;SDS011;64828;49.956;8.636;2024-03-17T00:26:05;7.70;;;5.47;;
76098;SDS011;64828;49.956;8.636;2024-03-17T00:26:21;7.97;;;5.88;;
76098;SDS011;64828;49.956;8.636;2024-03-17T00:26:37;8.23;;;6.30;;
76098;SDS011;64828;49.956;8.636;2024-03-17T00:26:53;9.03;;;5.97;;
76098;SDS011;64828;49.956;8.636;2024-03-17T00:27:08;8.98;;;5.63;;
76098;SDS011;64828;49.956;8.636;2024-03-17T00:27:26;8.38;;;6.00;;
76098;SDS011;64828;49.956;8.636;2024-03-17T00:27:42;7.57;;;5.97;;
76098;SDS011;64828;49.956;8.636;2024-03-17T00:28:00;8.25;;;5.63;;
76098;SDS011;64828;49.956;8.636;2024-03-17T00:28:19;7.88;;;5.65;;
76098;SDS011;64828;49.956;8.636;2024-03-17T00:28:35;7.15;;;5.72;;
76098;SDS011;64828;49.956;8.636;2024-03-17T00:28:51;7.05;;;5.95;;
76098;SDS011;64828;49.956;8.636;2024-03-17T00:29:07;6.83;;;5.83;;
76098;SDS011;64828;49.956;8.636;2024-03-17T00:29:23;7.40;;;5.70;;
76098;SDS011;64828;49.956;8.636;2024-03-17T00:29:39;7.47;;;5.60;;
76098;SDS011;64828;49.956;8.636;2024-03-17T00:29:55;7.40;;;5.33;;
76098;SDS011;64828;49.956;8.636;2024-03-17T00:30:11;8.40;;;5.50;;
76098;SDS011;64828;49.956;8.636;2024-03-17T00:30:27;8.65;;;5.65;;
76098;SDS011;64828;49.956;8.636;2024-03-17T00:30:43;8.23;;;5.60;;
76098;SDS011;64828;49.956;8.636;2024-03-17T00:30:59;7.87;;;6.00;;
76098;SDS011;64828;49.956;8.636;2024-03-17T00:31:17;7.47;;;6.13;;
76098;SDS011;64828;49.956;8.636;2024-03-17T00:31:33;8.07;;;5.90;;
76098;SDS011;64828;49.956;8.636;2024-03-17T00:31:49;8.47;;;5.90;;
76098;SDS011;64828;49.956;8.636;2024-03-17T00:32:05;8.00;;;5.80;;
76098;SDS011;64828;49.956;8.636;2024-03-17T00:32:21;7.45;;;5.75;;
76098;SDS011;64828;49.956;8.636;2024-03-17T00:32:39;9.00;;;6.10;;
76098;SDS011;64828;49.956;8.636;2024-03-17T00:32:55;9.15;;;6.20;;
76098;SDS011;64828;49.956;8.636;2024-03-17T00:33:10;8.73;;;5.97;;
76098;SDS011;64828;49.956;8.636;2024-03-17T00:33:26;8.93;;;6.30;;
76098;SDS011;64828;49.956;8.636;2024-03-17T00:33:43;9.65;;;6.90;;
76098;SDS011;64828;49.956;8.636;2024-03-17T00:33:59;10.67;;;6.70;;
76098;SDS011;64828;49.956;8.636;2024-03-17T00:34:15;10.20;;;6.63;;
76098;SDS011;64828;49.956;8.636;2024-03-17T00:34:31;8.85;;;6.50;;
76098;SDS011;64828;49.956;8.636;2024-03-17T00:34:47;8.30;;;6.10;;
76098;SDS011;64828;49.956;8.636;2024-03-17T00:35:02;8.95;;;6.40;;
76098;SDS011;64828;49.956;8.636;2024-03-17T00:35:19;8.13;;;6.50;;
76098;SDS011;64828;49.956;8.636;2024-03-17T00:35:38;8.45;;;6.70;;
76098;SDS011;64828;49.956;8.636;2024-03-17T00:35:53;9.57;;;6.78;;
76098;SDS011;64828;49.956;8.636;2024-03-17T00:36:09;9.50;;;6.70;;
76098;SDS011;64828;49.956;8.636;2024-03-17T00:36:25;8.32;;;6.32;;
76098;SDS011;64828;49.956;8.636;2024-03-17T00:36:40;8.18;;;6.20;;
76098;SDS011;64828;49.956;8.636;2024-03-17T00:36:56;8.70;;;6.57;;
76098;SDS011;64828;49.956;8.636;2024-03-17T00:37:12;8.77;;;6.40;;
76098;SDS011;64828;49.956;8.636;2024-03-17T00:37:27;8.07;;;5.95;;
76098;SDS011;64828;49.956;8.636;2024-03-17T00:37:43;9.03;;;6.17;;
76098;SDS011;64828;49.956;8.636;2024-03-17T00:37:59;9.45;;;6.22;;
76098;SDS011;64828;49.956;8.636;2024-03-17T00:38:16;7.70;;;5.75;;
76098;SDS011;64828;49.956;8.636;2024-03-17T00:38:32;8.13;;;6.13;;
76098;SDS011;64828;49.956;8.636;2024-03-17T00:38:48;8.07;;;5.95;;
76098;SDS011;64828;49.956;8.636;2024-03-17T00:39:03;7.18;;;5.20;;
76098;SDS011;64828;49.956;8.636;2024-03-17T00:39:19;7.03;;;5.35;;
76098;SDS011;64828;49.956;8.636;2024-03-17T00:39:35;7.27;;;5.40;;
76098;SDS011;64828;49.956;8.636;2024-03-17T00:39:51;7.88;;;5.50;;
76098;SDS011;64828;49.956;8.636;2024-03-17T00:40:06;8.50;;;5.50;;
76098;SDS011;64828;49.956;8.636;2024-03-17T00:40:23;7.78;;;5.45;;
76098;SDS011;64828;49.956;8.636;2024-03-17T00:40:38;7.33;;;5.30;;
76098;SDS011;64828;49.956;8.636;2024-03-17T00:40:59;7.95;;;5.00;;
76098;SDS011;64828;49.956;8.636;2024-03-17T00:41:18;7.88;;;5.05;;
76098;SDS011;64828;49.956;8.636;2024-03-17T00:41:34;6.88;;;4.97;;
76098;SDS011;64828;49.956;8.636;2024-03-17T00:41:50;8.30;;;5.10;;
76098;SDS011;64828;49.956;8.636;2024-03-17T00:42:06;7.47;;;4.75;;
76098;SDS011;64828;49.956;8.636;2024-03-17T00:42:21;6.47;;;4.87;;
76098;SDS011;64828;49.956;8.636;2024-03-17T00:42:37;6.63;;;5.25;;
76098;SDS011;64828;49.956;8.636;2024-03-17T00:42:53;6.65;;;4.80;;
76098;SDS011;64828;49.956;8.636;2024-03-17T00:43:09;7.15;;;4.53;;
76098;SDS011;64828;49.956;8.636;2024-03-17T00:43:26;8.45;;;4.90;;
76098;SDS011;64828;49.956;8.636;2024-03-17T00:43:42;8.00;;;4.90;;
76098;SDS011;64828;49.956;8.636;2024-03-17T00:43:57;7.10;;;4.67;;
76098;SDS011;64828;49.956;8.636;2024-03-17T00:44:15;6.50;;;4.50;;
76098;SDS011;64828;49.956;8.636;2024-03-17T00:44:31;6.38;;;4.50;;
76098;SDS011;64828;49.956;8.636;2024-03-17T00:44:47;7.03;;;4.53;;
76098;SDS011;64828;49.956;8.636;2024-03-17T00:45:03;8.23;;;4.67;;
76098;SDS011;64828;49.956;8.636;2024-03-17T00:45:21;7.93;;;4.75;;
76098;SDS011;64828;49.956;8.636;2024-03-17T00:45:37;8.15;;;4.85;;
76098;SDS011;64828;49.956;8.636;2024-03-17T00:45:52;7.27;;;4.63;;
76098;SDS011;64828;49.956;8.636;2024-03-17T00:46:08;6.53;;;4.40;;
76098;SDS011;64828;49.956;8.636;2024-03-17T00:46:24;7.28;;;4.70;;
76098;SDS011;64828;49.956;8.636;2024-03-17T00:46:39;6.97;;;4.90;;
76098;SDS011;64828;49.956;8.636;2024-03-17T00:46:57;5.85;;;4.53;;
76098;SDS011;64828;49.956;8.636;2024-03-17T00:47:12;7.43;;;4.63;;
76098;SDS011;64828;49.956;8.636;2024-03-17T00:47:28;7.60;;;4.35;;
76098;SDS011;64828;49.956;8.636;2024-03-17T00:47:44;5.90;;;3.90;;
76098;SDS011;64828;49.956;8.636;2024-03-17T00:48:00;6.78;;;4.07;;
76098;SDS011;64828;49.956;8.636;2024-03-17T00:48:16;7.03;;;4.20;;
76098;SDS011;64828;49.956;8.636;2024-03-17T00:48:31;7.17;;;4.07;;
76098;SDS011;64828;49.956;8.636;2024-03-17T00:48:50;7.38;;;4.00;;
76098;SDS011;64828;49.956;8.636;2024-03-17T00:49:06;6.10;;;3.90;;
76098;SDS011;64828;49.956;8.636;2024-03-17T00:49:21;6.57;;;3.97;;
76098;SDS011;64828;49.956;8.636;2024-03-17T00:49:37;7.20;;;4.28;;
76098;SDS011;64828;49.956;8.636;2024-03-17T00:49:53;6.88;;;4.00;;
76098;SDS011;64828;49.956;8.636;2024-03-17T00:50:09;6.23;;;3.70;;
76098;SDS011;64828;49.956;8.636;2024-03-17T00:50:26;5.20;;;3.78;;
76098;SDS011;64828;49.956;8.636;2024-03-17T00:50:42;7.15;;;3.95;;
76098;SDS011;64828;49.956;8.636;2024-03-17T00:50:59;6.72;;;4.13;;
76098;SDS011;64828;49.956;8.636;2024-03-17T00:51:15;6.60;;;4.00;;
76098;SDS011;64828;49.956;8.636;2024-03-17T00:51:31;6.43;;;3.88;;
76098;SDS011;64828;49.956;8.636;2024-03-17T00:51:47;6.03;;;4.07;;
76098;SDS011;64828;49.956;8.636;2024-03-17T00:52:05;5.78;;;3.92;;
76098;SDS011;64828;49.956;8.636;2024-03-17T00:52:20;6.63;;;3.70;;
76098;SDS011;64828;49.956;8.636;2024-03-17T00:52:36;6.70;;;3.90;;
76098;SDS011;64828;49.956;8.636;2024-03-17T00:52:52;6.80;;;3.95;;
76098;SDS011;64828;49.956;8.636;2024-03-17T00:53:08;8.57;;;4.03;;
76098;SDS011;64828;49.956;8.636;2024-03-17T00:53:27;6.87;;;3.80;;
76098;SDS011;64828;49.956;8.636;2024-03-17T00:53:44;5.72;;;3.70;;
76098;SDS011;64828;49.956;8.636;2024-03-17T00:54:00;6.40;;;3.63;;
76098;SDS011;64828;49.956;8.636;2024-03-17T00:54:15;5.72;;;3.60;;
76098;SDS011;64828;49.956;8.636;2024-03-17T00:54:33;5.93;;;3.90;;
76098;SDS011;64828;49.956;8.636;2024-03-17T00:54:48;6.03;;;4.05;;
76098;SDS011;64828;49.956;8.636;2024-03-17T00:55:04;6.65;;;4.10;;
76098;SDS011;64828;49.956;8.636;2024-03-17T00:55:20;6.75;;;3.97;;
76098;SDS011;64828;49.956;8.636;2024-03-17T00:55:36;5.57;;;3.85;;
76098;SDS011;64828;49.956;8.636;2024-03-17T00:55:53;6.15;;;4.00;;
76098;SDS011;64828;49.956;8.636;2024-03-17T00:56:13;5.55;;;3.72;;
76098;SDS011;64828;49.956;8.636;2024-03-17T00:56:29;6.53;;;3.67;;
76098;SDS011;64828;49.956;8.636;2024-03-17T00:56:45;8.25;;;3.80;;
76098;SDS011;64828;49.956;8.636;2024-03-17T00:57:01;6.68;;;3.90;;
76098;SDS011;64828;49.956;8.636;2024-03-17T00:57:17;5.60;;;3.87;;
76098;SDS011;64828;49.956;8.636;2024-03-17T00:57:33;5.45;;;3.88;;
76098;SDS011;64828;49.956;8.636;2024-03-17T00:57:48;5.88;;;3.78;;
76098;SDS011;64828;49.956;8.636;2024-03-17T00:58:04;5.63;;;3.80;;
76098;SDS011;64828;49.956;8.636;2024-03-17T00:58:22;6.40;;;4.00;;
76098;SDS011;64828;49.956;8.636;2024-03-17T00:58:38;6.50;;;3.60;;
76098;SDS011;64828;49.956;8.636;2024-03-17T00:58:54;5.30;;;3.53;;
76098;SDS011;64828;49.956;8.636;2024-03-17T00:59:09;5.03;;;3.40;;
76098;SDS011;64828;49.956;8.636;2024-03-17T00:59:25;5.32;;;3.50;;
76098;SDS011;64828;49.956;8.636;2024-03-17T00:59:42;6.45;;;4.05;;
76098;SDS011;64828;49.956;8.636;2024-03-17T00:59:59;6.60;;;3.90;;
76098;SDS011;64828;49.956;8.636;2024-03-17T01:00:15;6.97;;;4.10;;
76098;SDS011;64828;49.956;8.636;2024-03-17T01:00:31;6.97;;;3.95;;
76098;SDS011;64828;49.956;8.636;2024-03-17T01:00:48;6.32;;;3.65;;
76098;SDS011;64828;49.956;8.636;2024-03-17T01:01:04;7.03;;;3.92;;
76098;SDS011;64828;49.956;8.636;2024-03-17T01:01:20;7.00;;;3.83;;
76098;SDS011;64828;49.956;8.636;2024-03-17T01:01:35;6.40;;;3.60;;
76098;SDS011;64828;49.956;8.636;2024-03-17T01:01:51;5.33;;;3.57;;
76098;SDS011;64828;49.956;8.636;2024-03-17T01:02:06;4.88;;;3.55;;
76098;SDS011;64828;49.956;8.636;2024-03-17T01:02:22;6.90;;;3.70;;
76098;SDS011;64828;49.956;8.636;2024-03-17T01:02:38;7.07;;;3.47;;
76098;SDS011;64828;49.956;8.636;2024-03-17T01:02:54;6.70;;;3.17;;
76098;SDS011;64828;49.956;8.636;2024-03-17T01:03:11;6.25;;;3.17;;
76098;SDS011;64828;49.956;8.636;2024-03-17T01:03:26;6.95;;;3.50;;
76098;SDS011;64828;49.956;8.636;2024-03-17T01:03:45;6.75;;;3.50;;
76098;SDS011;64828;49.956;8.636;2024-03-17T01:04:01;6.20;;;3.40;;
76098;SDS011;64828;49.956;8.636;2024-03-17T01:04:17;7.40;;;3.47;;
76098;SDS011;64828;49.956;8.636;2024-03-17T01:04:32;6.70;;;3.50;;
76098;SDS011;64828;49.956;8.636;2024-03-17T01:04:48;5.65;;;3.15;;
76098;SDS011;64828;49.956;8.636;2024-03-17T01:05:04;6.57;;;3.20;;
76098;SDS011;64828;49.956;8.636;2024-03-17T01:05:20;6.40;;;3.53;;
76098;SDS011;64828;49.956;8.636;2024-03-17T01:05:37;4.90;;;3.20;;
76098;SDS011;64828;49.956;8.636;2024-03-17T01:05:57;5.88;;;3.17;;
76098;SDS011;64828;49.956;8.636;2024-03-17T01:06:12;6.20;;;3.33;;
76098;SDS011;64828;49.956;8.636;2024-03-17T01:06:28;4.97;;;3.17;;
76098;SDS011;64828;49.956;8.636;2024-03-17T01:06:44;4.47;;;2.90;;
76098;SDS011;64828;49.956;8.636;2024-03-17T01:07:00;4.55;;;2.90;;
76098;SDS011;64828;49.956;8.636;2024-03-17T01:07:16;5.20;;;3.30;;
76098;SDS011;64828;49.956;8.636;2024-03-17T01:07:32;6.13;;;3.42;;
76098;SDS011;64828;49.956;8.636;2024-03-17T01:07:49;4.90;;;3.10;;
76098;SDS011;64828;49.956;8.636;2024-03-17T01:08:04;5.03;;;2.95;;
76098;SDS011;64828;49.956;8.636;2024-03-17T01:08:20;5.18;;;3.00;;
76098;SDS011;64828;49.956;8.636;2024-03-17T01:08:36;6.20;;;3.30;;
76098;SDS011;64828;49.956;8.636;2024-03-17T01:08:52;7.38;;;3.47;;
76098;SDS011;64828;49.956;8.636;2024-03-17T01:09:07;5.53;;;2.92;;
76098;SDS011;64828;49.956;8.636;2024-03-17T01:09:23;4.43;;;2.90;;
76098;SDS011;64828;49.956;8.636;2024-03-17T01:09:39;6.20;;;3.30;;
76098;SDS011;64828;49.956;8.636;2024-03-17T01:09:55;6.40;;;3.30;;
76098;SDS011;64828;49.956;8.636;2024-03-17T01:10:11;4.93;;;3.10;;
76098;SDS011;64828;49.956;8.636;2024-03-17T01:10:27;5.00;;;3.10;;
76098;SDS011;64828;49.956;8.636;2024-03-17T01:10:43;4.28;;;3.15;;
76098;SDS011;64828;49.956;8.636;2024-03-17T01:11:00;4.72;;;3.20;;
76098;SDS011;64828;49.956;8.636;2024-03-17T01:11:17;4.63;;;2.95;;
76098;SDS011;64828;49.956;8.636;2024-03-17T01:11:34;4.30;;;2.70;;
76098;SDS011;64828;49.956;8.636;2024-03-17T01:11:50;6.50;;;3.10;;
76098;SDS011;64828;49.956;8.636;2024-03-17T01:12:05;8.17;;;3.30;;
76098;SDS011;64828;49.956;8.636;2024-03-17T01:12:21;6.35;;;3.15;;
76098;SDS011;64828;49.956;8.636;2024-03-17T01:12:37;4.80;;;3.10;;
76098;SDS011;64828;49.956;8.636;2024-03-17T01:12:52;4.90;;;3.13;;
76098;SDS011;64828;49.956;8.636;2024-03-17T01:13:08;4.63;;;3.20;;
76098;SDS011;64828;49.956;8.636;2024-03-17T01:13:27;5.63;;;3.60;;
76098;SDS011;64828;49.956;8.636;2024-03-17T01:13:43;6.00;;;3.53;;
76098;SDS011;64828;49.956;8.636;2024-03-17T01:13:59;4.90;;;3.35;;
76098;SDS011;64828;49.956;8.636;2024-03-17T01:14:15;4.70;;;3.10;;
76098;SDS011;64828;49.956;8.636;2024-03-17T01:14:31;4.68;;;3.10;;
76098;SDS011;64828;49.956;8.636;2024-03-17T01:14:48;4.15;;;2.90;;
76098;SDS011;64828;49.956;8.636;2024-03-17T01:15:06;4.35;;;2.95;;
76098;SDS011;64828;49.956;8.636;2024-03-17T01:15:24;5.40;;;3.20;;
76098;SDS011;64828;49.956;8.636;2024-03-17T01:15:39;5.80;;;3.20;;
76098;SDS011;64828;49.956;8.636;2024-03-17T01:15:55;5.50;;;3.20;;
76098;SDS011;64828;49.956;8.636;2024-03-17T01:16:11;5.88;;;3.10;;
76098;SDS011;64828;49.956;8.636;2024-03-17T01:16:28;4.97;;;3.17;;
76098;SDS011;64828;49.956;8.636;2024-03-17T01:16:44;4.93;;;3.15;;
76098;SDS011;64828;49.956;8.636;2024-03-17T01:17:01;5.15;;;3.20;;
76098;SDS011;64828;49.956;8.636;2024-03-17T01:17:19;4.75;;;3.28;;
76098;SDS011;64828;49.956;8.636;2024-03-17T01:17:35;5.90;;;3.22;;
76098;SDS011;64828;49.956;8.636;2024-03-17T01:17:51;6.75;;;3.22;;
76098;SDS011;64828;49.956;8.636;2024-03-17T01:18:06;5.23;;;3.00;;
76098;SDS011;64828;49.956;8.636;2024-03-17T01:18:23;5.07;;;3.15;;
76098;SDS011;64828;49.956;8.636;2024-03-17T01:18:38;6.07;;;3.40;;
76098;SDS011;64828;49.956;8.636;2024-03-17T01:18:54;5.67;;;3.40;;
76098;SDS011;64828;49.956;8.636;2024-03-17T01:19:10;5.05;;;3.50;;
76098;SDS011;64828;49.956;8.636;2024-03-17T01:19:26;4.60;;;3.50;;
76098;SDS011;64828;49.956;8.636;2024-03-17T01:19:41;5.13;;;3.60;;
76098;SDS011;64828;49.956;8.636;2024-03-17T01:19:57;6.57;;;3.40;;
76098;SDS011;64828;49.956;8.636;2024-03-17T01:20:13;5.85;;;3.20;;
76098;SDS011;64828;49.956;8.636;2024-03-17T01:20:29;5.05;;;3.05;;
76098;SDS011;64828;49.956;8.636;2024-03-17T01:20:46;6.95;;;3.53;;
76098;SDS011;64828;49.956;8.636;2024-03-17T01:21:02;7.45;;;3.80;;
76098;SDS011;64828;49.956;8.636;2024-03-17T01:21:19;5.10;;;3.20;;
76098;SDS011;64828;49.956;8.636;2024-03-17T01:21:35;5.18;;;3.22;;
76098;SDS011;64828;49.956;8.636;2024-03-17T01:21:52;5.55;;;3.00;;
76098;SDS011;64828;49.956;8.636;2024-03-17T01:22:08;5.13;;;3.00;;
76098;SDS011;64828;49.956;8.636;2024-03-17T01:22:24;4.22;;;3.20;;
76098;SDS011;64828;49.956;8.636;2024-03-17T01:22:40;4.57;;;3.33;;
76098;SDS011;64828;49.956;8.636;2024-03-17T01:22:56;5.90;;;3.35;;
76098;SDS011;64828;49.956;8.636;2024-03-17T01:23:12;6.13;;;3.35;;
76098;SDS011;64828;49.956;8.636;2024-03-17T01:23:28;5.50;;;3.33;;
76098;SDS011;64828;49.956;8.636;2024-03-17T01:23:44;4.88;;;3.30;;
76098;SDS011;64828;49.956;8.636;2024-03-17T01:24:00;4.72;;;3.15;;
76098;SDS011;64828;49.956;8.636;2024-03-17T01:24:16;4.60;;;3.10;;
76098;SDS011;64828;49.956;8.636;2024-03-17T01:24:33;5.35;;;3.20;;
76098;SDS011;64828;49.956;8.636;2024-03-17T01:24:49;5.75;;;3.40;;
76098;SDS011;64828;49.956;8.636;2024-03-17T01:25:05;5.60;;;3.33;;
76098;SDS011;64828;49.956;8.636;2024-03-17T01:25:22;5.80;;;3.40;;
76098;SDS011;64828;49.956;8.636;2024-03-17T01:25:37;6.38;;;3.42;;
76098;SDS011;64828;49.956;8.636;2024-03-17T01:25:53;6.18;;;3.30;;
76098;SDS011;64828;49.956;8.636;2024-03-17T01:26:09;6.10;;;3.33;;
76098;SDS011;64828;49.956;8.636;2024-03-17T01:26:26;6.10;;;3.60;;
76098;SDS011;64828;49.956;8.636;2024-03-17T01:26:41;6.53;;;3.72;;
76098;SDS011;64828;49.956;8.636;2024-03-17T01:27:00;6.60;;;3.50;;
76098;SDS011;64828;49.956;8.636;2024-03-17T01:27:16;5.45;;;3.40;;
76098;SDS011;64828;49.956;8.636;2024-03-17T01:27:32;4.95;;;3.38;;
76098;SDS011;64828;49.956;8.636;2024-03-17T01:27:48;4.60;;;3.10;;
76098;SDS011;64828;49.956;8.636;2024-03-17T01:28:04;6.13;;;3.10;;
76098;SDS011;64828;49.956;8.636;2024-03-17T01:28:20;7.13;;;3.35;;
76098;SDS011;64828;49.956;8.636;2024-03-17T01:28:35;6.38;;;3.30;;
76098;SDS011;64828;49.956;8.636;2024-03-17T01:28:51;5.72;;;3.30;;
76098;SDS011;64828;49.956;8.636;2024-03-17T01:29:07;5.53;;;3.38;;
76098;SDS011;64828;49.956;8.636;2024-03-17T01:29:24;5.22;;;3.53;;
76098;SDS011;64828;49.956;8.636;2024-03-17T01:29:40;4.95;;;3.47;;
76098;SDS011;64828;49.956;8.636;2024-03-17T01:29:55;5.53;;;3.45;;
76098;SDS011;64828;49.956;8.636;2024-03-17T01:30:11;6.32;;;3.40;;
76098;SDS011;64828;49.956;8.636;2024-03-17T01:30:27;6.38;;;3.47;;
76098;SDS011;64828;49.956;8.636;2024-03-17T01:30:43;5.50;;;3.50;;
76098;SDS011;64828;49.956;8.636;2024-03-17T01:30:59;5.13;;;3.20;;
76098;SDS011;64828;49.956;8.636;2024-03-17T01:31:14;6.82;;;3.35;;
76098;SDS011;64828;49.956;8.636;2024-03-17T01:31:30;6.43;;;3.53;;
76098;SDS011;64828;49.956;8.636;2024-03-17T01:31:46;5.97;;;3.70;;
76098;SDS011;64828;49.956;8.636;2024-03-17T01:32:01;5.32;;;3.20;;
76098;SDS011;64828;49.956;8.636;2024-03-17T01:32:17;5.03;;;2.95;;
76098;SDS011;64828;49.956;8.636;2024-03-17T01:32:34;6.38;;;3.35;;
76098;SDS011;64828;49.956;8.636;2024-03-17T01:32:50;6.70;;;3.53;;
76098;SDS011;64828;49.956;8.636;2024-03-17T01:33:06;6.60;;;3.72;;
76098;SDS011;64828;49.956;8.636;2024-03-17T01:33:22;6.32;;;3.60;;
76098;SDS011;64828;49.956;8.636;2024-03-17T01:33:38;5.90;;;3.20;;
76098;SDS011;64828;49.956;8.636;2024-03-17T01:33:55;5.73;;;3.50;;
76098;SDS011;64828;49.956;8.636;2024-03-17T01:34:10;5.85;;;3.60;;
76098;SDS011;64828;49.956;8.636;2024-03-17T01:34:26;5.18;;;3.42;;
76098;SDS011;64828;49.956;8.636;2024-03-17T01:34:42;4.70;;;3.40;;
76098;SDS011;64828;49.956;8.636;2024-03-17T01:34:57;5.00;;;3.40;;
76098;SDS011;64828;49.956;8.636;2024-03-17T01:35:13;5.57;;;3.15;;
76098;SDS011;64828;49.956;8.636;2024-03-17T01:35:29;5.28;;;3.20;;
76098;SDS011;64828;49.956;8.636;2024-03-17T01:35:45;5.30;;;3.40;;
76098;SDS011;64828;49.956;8.636;2024-03-17T01:36:00;6.28;;;3.60;;
76098;SDS011;64828;49.956;8.636;2024-03-17T01:36:16;6.10;;;3.65;;
76098;SDS011;64828;49.956;8.636;2024-03-17T01:36:32;6.00;;;3.40;;
76098;SDS011;64828;49.956;8.636;2024-03-17T01:36:47;5.75;;;3.40;;
76098;SDS011;64828;49.956;8.636;2024-03-17T01:37:03;4.63;;;3.35;;
76098;SDS011;64828;49.956;8.636;2024-03-17T01:37:19;5.28;;;3.45;;
76098;SDS011;64828;49.956;8.636;2024-03-17T01:37:35;5.40;;;3.70;;
76098;SDS011;64828;49.956;8.636;2024-03-17T01:37:51;6.28;;;4.00;;